aviador You're here:

KFLD Decoded Metar

FOND DU LAC in WI, USA
Report Time2017-07-22 23:53:00
UTC Time2017-07-23 00:48:43
Flight Rules vfr VFR
WindCalm
Visibility9999 m
Phenomena:N/A
Clouds:N/A
Expected CloudBase > 3,600 ft AGL from Temp-Dew spread
CeilingNone
Temp28°C (ISA +15)
Dew Point19°C (58% RH)
Heat Index29.2°C
QNH1009 hPa
Density Alt2,890 ft
Elevation787 ft
Report Wrong Elevation
Raw Report
KFLD 222353Z AUTO 00000KT 10SM CLR 28/19 A2979 RMK AO2 SLP082
T02830194 10289 20244 58008=

Extra information for KFLD:More info

Metar Taf Metar & Taf Last 4 Metars F.Rules Stats Wind Profile Meteogram Temp Stats Airport Information Weather charts Add Link Nearby VenuesMetar ALERT Operation Metar Decoded Social comments

AIRNAV info for KFLD